Página principal
METAR-TAF:

METAR-TAF

Aeroportos :

Cambridge, Inglaterra

latitude: 52-12N, longitude: 000-11E, altura: 15 m

Observação actual do tempo

O boletim foi feito há 2 horas e 24 minutos, às 16:50 UTC
Vento 10 kt de oes-sudoeste
Temperatura 12°C
Humidade 54%
Pressão 1014 hPa
Visibilidade 10 km ou mais
Nuvens dispersasa uma altura de 4300 ft
aguaceiros nas vizinhanças

METAR: EGSC 261650Z 24010KT 9999 VCSH SCT043 12/03 Q1014

Hora: 20:14 (19:14 UTC)

Previsão

O boletim foi feito há 5 horas e 14 minutos, às 14:00 UTC
Previsão válida de 26 às 15 UTC a 26 às 19 UTC
Vento 14 kt de oes-sudoeste
Visibilidade 10 km ou mais
Nuvens dispersasa uma altura de 4000 ft
Probabilidade 30% :
Temporariamente
de 26 às 15 UTC a 26 às 16 UTC
Vento 17 kt de oeste com rajadas de 27 kt
Visibilidade: 7000 m
aguaceiros de chuva

TAF: EGSC 261400Z 2615/2619 25014KT 9999 SCT040 PROB30 TEMPO 2615/2616 27017G27KT 7000 SHRA

Observações e previsões do tempo de mais de 4000 aeroportos (mensagens METAR e TAF).

As estações disponíveis são os pontos amarelos e vermelhos sobre o mapa.

Mova o rato sobre o mapa para ver o nome da estação.

Depois clique no ponto para visualizar as observações e previsões meteorológicas.

Para alterar o mapa : clique nos botões verdes com uma cruz preta para aumentar o zoom; no botão verde com uma pitada de zoom; ou nas setas verdes para mapas adjacentes.


METAR-TAF: